Newnan, GA

2:49 AM EDT on August 30, 2014 (GMT -0400)
RAWS NEWNAN GA US | Change Station
CLOSE
Current Station
Personal Weather Station
Location: Newnan, GA
Elevation: 873 ft
Nearby Weather Stations

Elev 873 ft 33.37 °N, 84.86 °W | Updated 47 minutes ago

Clear
Clear
74 °F
Feels Like 76 °F
N
3
Wind Variable Wind from South
Gusts 7.0 mph

Today
High -- | Low -- °F
--% Chance of Precip.
Yesterday
High -- | Low -- °F
Precip. -- in
7:12 AM 8:07 PM
Waxing Crescent, 19% visible
Pressure 30.10 in
Visibility 8.0 miles
Clouds Clear
Heat Index 76 °F
Dew Point 63 °F
Humidity 68%
Rainfall 0.00 in
Snow Depth Not available.
UV 0 out of 12
Pollen 9.10 out of 12
Air Quality Not available.
Flu Activity Not available.
METAR KFFC 300553Z AUTO 00000KT 8SM CLR 21/19 A3012 RMK AO2 SLP191 T02060189 10261 20206 51005

More Conditions Fewer Conditions

Pressure 30.10 in
Visibility 8.0 miles
Clouds Clear
Heat Index 76 °F
Dew Point 63 °F
Humidity 68%
Rainfall 0.00 in
Snow Depth Not available.
UV 0 out of 12
Pollen 9.10 out of 12
Air Quality Not available.
Flu Activity Not available.
METAR KFFC 300553Z AUTO 00000KT 8SM CLR 21/19 A3012 RMK AO2 SLP191 T02060189 10261 20206 51005

More Conditions Fewer Conditions

10-Day Weather Forecast

Almanac

Astronomy

Aug. 30, 2014 Rise Set
Actual Time 7:12 AM EDT 8:07 PM EDT
Civil Twilight 6:46 AM EDT 8:32 PM EDT
Nautical Twilight 6:16 AM EDT 9:02 PM EDT
Astronomical Twilight 5:45 AM EDT 9:33 PM EDT
Moon 11:43 AM EDT 10:57 PM EDT
Length of Visible Light 13h 45m
Length of Day
12h 55m
Tomorrow will be 1m 58s shorter.
Waxing Crescent, 19% of the Moon is Illuminated
Today
Waxing Crescent
Sep 2
First Quarter
Sep 8
Full
Sep 15
Last Quarter
Sep 24
New

Today's Extremes

State Highs State Lows

Community

WunderPhotos

Upload Photos

1,748,462 photos uploaded!

Nearby

Air Quality

  Air Quality AQ Index Pollutant
Yesterday Good
PM10
Saturday Moderate
PM2.5
Saturday Good
OZONE

Snow Depth

Station Depth Elevation
No new snow has been reported.

Earthquake Activity

City Distance Mag. Time & Date
No recent earthquake activity has been reported nearby.
Minimum magnitude displayed is 2.5.

Coastal Water Temperatures

Place Temperature
No Stations Reporting

Nearby Weather Stations